sensor_id;sensor_type;location;lat;lon;timestamp;pressure;altitude;pressure_sealevel;temperature;humidity
27613;BME280;15036;48.094;-1.690;2022-10-10T00:01:40;100568.56;;;20.33;51.58
27613;BME280;15036;48.094;-1.690;2022-10-10T00:04:06;100564.72;;;20.39;51.58
27613;BME280;15036;48.094;-1.690;2022-10-10T00:06:37;100567.47;;;20.34;51.63
27613;BME280;15036;48.094;-1.690;2022-10-10T00:09:04;100557.19;;;20.34;51.57
27613;BME280;15036;48.094;-1.690;2022-10-10T00:11:32;100560.22;;;20.28;51.83
27613;BME280;15036;48.094;-1.690;2022-10-10T00:13:59;100559.44;;;20.37;51.55
27613;BME280;15036;48.094;-1.690;2022-10-10T00:16:25;100552.53;;;20.40;51.49
27613;BME280;15036;48.094;-1.690;2022-10-10T00:18:50;100563.28;;;20.26;52.13
27613;BME280;15036;48.094;-1.690;2022-10-10T00:21:16;100568.00;;;20.31;51.93
27613;BME280;15036;48.094;-1.690;2022-10-10T00:23:41;100564.44;;;20.35;52.10
27613;BME280;15036;48.094;-1.690;2022-10-10T00:26:07;100557.72;;;20.26;52.18
27613;BME280;15036;48.094;-1.690;2022-10-10T00:28:32;100552.91;;;20.17;52.50
27613;BME280;15036;48.094;-1.690;2022-10-10T00:30:58;100562.91;;;20.18;52.57
27613;BME280;15036;48.094;-1.690;2022-10-10T00:33:24;100555.78;;;20.27;52.29
27613;BME280;15036;48.094;-1.690;2022-10-10T00:35:49;100555.41;;;20.18;52.50
27613;BME280;15036;48.094;-1.690;2022-10-10T00:38:15;100559.88;;;20.19;52.63
27613;BME280;15036;48.094;-1.690;2022-10-10T00:40:52;100562.38;;;20.21;52.68
27613;BME280;15036;48.094;-1.690;2022-10-10T00:43:19;100563.78;;;20.23;52.63
27613;BME280;15036;48.094;-1.690;2022-10-10T00:45:46;100563.13;;;20.11;53.03
27613;BME280;15036;48.094;-1.690;2022-10-10T00:48:14;100565.88;;;20.06;53.26
27613;BME280;15036;48.094;-1.690;2022-10-10T00:50:49;100563.88;;;20.02;53.59
27613;BME280;15036;48.094;-1.690;2022-10-10T00:53:19;100569.78;;;20.15;53.37
27613;BME280;15036;48.094;-1.690;2022-10-10T00:55:46;100570.84;;;20.04;53.84
27613;BME280;15036;48.094;-1.690;2022-10-10T00:58:13;100573.94;;;20.13;53.67
27613;BME280;15036;48.094;-1.690;2022-10-10T01:00:38;100581.66;;;20.06;53.89
27613;BME280;15036;48.094;-1.690;2022-10-10T01:03:04;100581.59;;;20.01;54.12
27613;BME280;15036;48.094;-1.690;2022-10-10T01:05:30;100577.75;;;20.07;54.11
27613;BME280;15036;48.094;-1.690;2022-10-10T01:07:56;100581.78;;;20.21;53.73
27613;BME280;15036;48.094;-1.690;2022-10-10T01:10:21;100575.06;;;20.17;54.04
27613;BME280;15036;48.094;-1.690;2022-10-10T01:13:01;100578.69;;;20.17;53.88
27613;BME280;15036;48.094;-1.690;2022-10-10T01:18:44;100576.56;;;20.24;53.75
27613;BME280;15036;48.094;-1.690;2022-10-10T01:27:33;100558.81;;;20.25;53.76
27613;BME280;15036;48.094;-1.690;2022-10-10T01:30:03;100568.63;;;20.38;53.31
27613;BME280;15036;48.094;-1.690;2022-10-10T01:35:17;100573.97;;;20.18;54.09
27613;BME280;15036;48.094;-1.690;2022-10-10T01:37:47;100573.38;;;20.11;54.21
27613;BME280;15036;48.094;-1.690;2022-10-10T01:43:05;100575.31;;;20.10;54.19
27613;BME280;15036;48.094;-1.690;2022-10-10T01:45:31;100577.94;;;20.27;54.01
27613;BME280;15036;48.094;-1.690;2022-10-10T01:48:01;100584.63;;;20.31;53.91
27613;BME280;15036;48.094;-1.690;2022-10-10T01:50:29;100586.72;;;20.14;54.45
27613;BME280;15036;48.094;-1.690;2022-10-10T01:53:16;100591.47;;;20.18;54.47
27613;BME280;15036;48.094;-1.690;2022-10-10T01:56:15;100596.44;;;20.16;54.68
27613;BME280;15036;48.094;-1.690;2022-10-10T01:59:21;100596.50;;;20.21;55.11
27613;BME280;15036;48.094;-1.690;2022-10-10T02:04:58;100598.84;;;20.39;55.50
27613;BME280;15036;48.094;-1.690;2022-10-10T02:07:36;100606.16;;;20.60;55.16
27613;BME280;15036;48.094;-1.690;2022-10-10T02:10:05;100603.84;;;20.42;55.88
27613;BME280;15036;48.094;-1.690;2022-10-10T02:12:32;100606.59;;;20.42;55.77
27613;BME280;15036;48.094;-1.690;2022-10-10T02:15:06;100604.69;;;20.43;55.56
27613;BME280;15036;48.094;-1.690;2022-10-10T02:17:34;100599.97;;;20.43;55.54
27613;BME280;15036;48.094;-1.690;2022-10-10T02:20:05;100595.69;;;20.67;55.01
27613;BME280;15036;48.094;-1.690;2022-10-10T02:22:32;100599.19;;;20.53;55.31
27613;BME280;15036;48.094;-1.690;2022-10-10T02:24:59;100591.72;;;20.53;55.51
27613;BME280;15036;48.094;-1.690;2022-10-10T02:27:33;100586.91;;;20.86;54.72
27613;BME280;15036;48.094;-1.690;2022-10-10T02:30:01;100592.56;;;20.59;55.52
27613;BME280;15036;48.094;-1.690;2022-10-10T02:32:37;100593.13;;;20.56;55.82
27613;BME280;15036;48.094;-1.690;2022-10-10T02:35:08;100599.75;;;20.55;55.65
27613;BME280;15036;48.094;-1.690;2022-10-10T02:37:36;100593.41;;;20.59;55.74
27613;BME280;15036;48.094;-1.690;2022-10-10T02:40:05;100591.84;;;20.79;55.79
27613;BME280;15036;48.094;-1.690;2022-10-10T02:42:33;100591.34;;;20.87;55.29
27613;BME280;15036;48.094;-1.690;2022-10-10T02:44:59;100598.25;;;20.79;55.53
27613;BME280;15036;48.094;-1.690;2022-10-10T02:47:26;100595.53;;;20.89;54.87
27613;BME280;15036;48.094;-1.690;2022-10-10T02:49:51;100590.13;;;20.67;54.80
27613;BME280;15036;48.094;-1.690;2022-10-10T02:52:17;100598.06;;;20.49;55.04
27613;BME280;15036;48.094;-1.690;2022-10-10T02:54:42;100600.66;;;20.65;55.29
27613;BME280;15036;48.094;-1.690;2022-10-10T02:57:08;100608.44;;;20.68;55.15
27613;BME280;15036;48.094;-1.690;2022-10-10T02:59:33;100609.00;;;20.65;55.76
27613;BME280;15036;48.094;-1.690;2022-10-10T03:01:59;100613.16;;;20.68;55.93
27613;BME280;15036;48.094;-1.690;2022-10-10T03:04:24;100619.00;;;20.71;56.16
27613;BME280;15036;48.094;-1.690;2022-10-10T03:06:50;100619.53;;;20.68;56.30
27613;BME280;15036;48.094;-1.690;2022-10-10T03:09:15;100617.69;;;20.84;56.23
27613;BME280;15036;48.094;-1.690;2022-10-10T03:11:41;100616.31;;;20.87;56.97
27613;BME280;15036;48.094;-1.690;2022-10-10T03:14:06;100613.78;;;20.80;57.30
27613;BME280;15036;48.094;-1.690;2022-10-10T03:16:32;100615.41;;;20.76;57.51
27613;BME280;15036;48.094;-1.690;2022-10-10T03:18:57;100613.53;;;20.82;57.40
27613;BME280;15036;48.094;-1.690;2022-10-10T03:21:22;100607.13;;;20.81;57.42
27613;BME280;15036;48.094;-1.690;2022-10-10T03:23:48;100607.13;;;20.81;57.62
27613;BME280;15036;48.094;-1.690;2022-10-10T03:26:21;100606.28;;;20.81;57.63
27613;BME280;15036;48.094;-1.690;2022-10-10T03:28:46;100603.47;;;20.70;58.36
27613;BME280;15036;48.094;-1.690;2022-10-10T03:31:11;100600.97;;;20.74;58.50
27613;BME280;15036;48.094;-1.690;2022-10-10T03:33:37;100595.66;;;21.14;57.93
27613;BME280;15036;48.094;-1.690;2022-10-10T03:36:02;100595.78;;;20.88;58.71
27613;BME280;15036;48.094;-1.690;2022-10-10T03:38:27;100591.91;;;20.94;58.70
27613;BME280;15036;48.094;-1.690;2022-10-10T03:40:53;100601.03;;;20.84;59.12
27613;BME280;15036;48.094;-1.690;2022-10-10T03:43:18;100601.34;;;20.88;59.08
27613;BME280;15036;48.094;-1.690;2022-10-10T03:45:44;100601.91;;;20.90;59.21
27613;BME280;15036;48.094;-1.690;2022-10-10T03:48:12;100592.75;;;20.94;59.17
27613;BME280;15036;48.094;-1.690;2022-10-10T03:50:37;100595.78;;;20.88;59.56
27613;BME280;15036;48.094;-1.690;2022-10-10T03:53:03;100601.34;;;20.88;59.66
27613;BME280;15036;48.094;-1.690;2022-10-10T03:55:29;100602.44;;;20.82;59.85
27613;BME280;15036;48.094;-1.690;2022-10-10T03:57:54;100603.22;;;20.82;59.84
27613;BME280;15036;48.094;-1.690;2022-10-10T04:00:20;100609.41;;;20.89;59.63
27613;BME280;15036;48.094;-1.690;2022-10-10T04:02:45;100609.41;;;20.89;59.84
27613;BME280;15036;48.094;-1.690;2022-10-10T04:05:11;100617.16;;;20.87;59.95
27613;BME280;15036;48.094;-1.690;2022-10-10T04:07:36;100612.69;;;20.81;60.21
27613;BME280;15036;48.094;-1.690;2022-10-10T04:10:02;100621.56;;;20.83;60.15
27613;BME280;15036;48.094;-1.690;2022-10-10T04:12:28;100640.94;;;20.78;60.22
27613;BME280;15036;48.094;-1.690;2022-10-10T04:14:53;100651.75;;;20.74;60.18
27613;BME280;15036;48.094;-1.690;2022-10-10T04:17:18;100650.56;;;20.60;60.65
27613;BME280;15036;48.094;-1.690;2022-10-10T04:19:44;100659.66;;;20.51;60.60
27613;BME280;15036;48.094;-1.690;2022-10-10T04:22:09;100661.47;;;20.35;60.53
27613;BME280;15036;48.094;-1.690;2022-10-10T04:24:34;100667.97;;;20.51;60.11
27613;BME280;15036;48.094;-1.690;2022-10-10T04:27:00;100667.75;;;20.57;59.66
27613;BME280;15036;48.094;-1.690;2022-10-10T04:29:25;100664.13;;;20.52;59.98
27613;BME280;15036;48.094;-1.690;2022-10-10T04:31:51;100675.84;;;20.32;60.40
27613;BME280;15036;48.094;-1.690;2022-10-10T04:34:16;100674.06;;;20.48;60.10
27613;BME280;15036;48.094;-1.690;2022-10-10T04:36:41;100678.06;;;20.30;60.50
27613;BME280;15036;48.094;-1.690;2022-10-10T04:39:07;100670.06;;;20.34;60.71
27613;BME280;15036;48.094;-1.690;2022-10-10T04:41:33;100668.06;;;20.24;61.04
27613;BME280;15036;48.094;-1.690;2022-10-10T04:43:58;100677.25;;;20.30;61.02
27613;BME280;15036;48.094;-1.690;2022-10-10T04:46:24;100670.28;;;20.27;61.07
27613;BME280;15036;48.094;-1.690;2022-10-10T04:48:49;100671.84;;;20.18;61.38
27613;BME280;15036;48.094;-1.690;2022-10-10T04:51:15;100678.03;;;20.25;61.22
27613;BME280;15036;48.094;-1.690;2022-10-10T04:53:40;100672.22;;;20.27;61.42
27613;BME280;15036;48.094;-1.690;2022-10-10T04:56:06;100666.41;;;20.28;61.56
27613;BME280;15036;48.094;-1.690;2022-10-10T04:58:31;100676.47;;;20.39;61.58
27613;BME280;15036;48.094;-1.690;2022-10-10T05:00:57;100674.94;;;20.53;61.15
27613;BME280;15036;48.094;-1.690;2022-10-10T05:03:23;100672.69;;;20.50;61.22
27613;BME280;15036;48.094;-1.690;2022-10-10T05:05:49;100672.75;;;20.60;61.01
27613;BME280;15036;48.094;-1.690;2022-10-10T05:08:15;100673.00;;;20.54;61.29
27613;BME280;15036;48.094;-1.690;2022-10-10T05:10:40;100678.34;;;20.02;62.71
27613;BME280;15036;48.094;-1.690;2022-10-10T05:13:07;100680.97;;;20.45;61.68
27613;BME280;15036;48.094;-1.690;2022-10-10T05:15:35;100680.16;;;20.18;62.79
27613;BME280;15036;48.094;-1.690;2022-10-10T05:18:02;100688.34;;;20.30;62.21
27613;BME280;15036;48.094;-1.690;2022-10-10T05:20:29;100685.72;;;20.18;62.73
27613;BME280;15036;48.094;-1.690;2022-10-10T05:22:54;100690.38;;;20.44;61.93
27613;BME280;15036;48.094;-1.690;2022-10-10T05:25:19;100698.22;;;20.52;61.55
27613;BME280;15036;48.094;-1.690;2022-10-10T05:27:45;100701.63;;;20.64;61.34
27613;BME280;15036;48.094;-1.690;2022-10-10T05:30:11;100692.91;;;20.46;62.26
27613;BME280;15036;48.094;-1.690;2022-10-10T05:32:36;100701.25;;;20.51;62.18
27613;BME280;15036;48.094;-1.690;2022-10-10T05:35:02;100700.75;;;20.54;62.04
27613;BME280;15036;48.094;-1.690;2022-10-10T05:37:29;100711.84;;;20.54;62.07
27613;BME280;15036;48.094;-1.690;2022-10-10T05:39:54;100705.47;;;20.58;61.97
27613;BME280;15036;48.094;-1.690;2022-10-10T05:42:20;100712.06;;;20.52;62.04
27613;BME280;15036;48.094;-1.690;2022-10-10T05:44:45;100711.47;;;20.45;62.34
27613;BME280;15036;48.094;-1.690;2022-10-10T05:47:10;100715.66;;;20.48;62.20
27613;BME280;15036;48.094;-1.690;2022-10-10T05:49:36;100711.00;;;20.53;62.17
27613;BME280;15036;48.094;-1.690;2022-10-10T05:52:01;100717.09;;;20.55;61.81
27613;BME280;15036;48.094;-1.690;2022-10-10T05:54:27;100720.41;;;20.52;61.99
27613;BME280;15036;48.094;-1.690;2022-10-10T05:56:52;100719.25;;;20.48;61.89
27613;BME280;15036;48.094;-1.690;2022-10-10T05:59:18;100726.03;;;20.62;61.50
27613;BME280;15036;48.094;-1.690;2022-10-10T06:01:43;100736.81;;;20.54;61.75
27613;BME280;15036;48.094;-1.690;2022-10-10T06:04:08;100737.00;;;20.47;61.66
27613;BME280;15036;48.094;-1.690;2022-10-10T06:06:34;100743.63;;;20.46;61.92
27613;BME280;15036;48.094;-1.690;2022-10-10T06:08:59;100744.75;;;20.45;61.97
27613;BME280;15036;48.094;-1.690;2022-10-10T06:11:25;100752.78;;;20.42;61.98
27613;BME280;15036;48.094;-1.690;2022-10-10T06:13:51;100762.00;;;20.52;61.70
27613;BME280;15036;48.094;-1.690;2022-10-10T06:16:22;100763.13;;;20.51;61.79
27613;BME280;15036;48.094;-1.690;2022-10-10T06:18:48;100761.75;;;20.54;62.01
27613;BME280;15036;48.094;-1.690;2022-10-10T06:21:14;100762.84;;;20.53;62.10
27613;BME280;15036;48.094;-1.690;2022-10-10T06:23:40;100765.50;;;20.69;61.62
27613;BME280;15036;48.094;-1.690;2022-10-10T06:26:06;100768.97;;;20.55;61.85
27613;BME280;15036;48.094;-1.690;2022-10-10T06:28:32;100760.75;;;20.70;61.25
27613;BME280;15036;48.094;-1.690;2022-10-10T06:30:59;100756.84;;;20.66;61.62
27613;BME280;15036;48.094;-1.690;2022-10-10T06:33:25;100756.06;;;20.70;61.39
27613;BME280;15036;48.094;-1.690;2022-10-10T06:35:51;100763.41;;;20.55;61.63
27613;BME280;15036;48.094;-1.690;2022-10-10T06:38:17;100762.47;;;20.44;61.91
27613;BME280;15036;48.094;-1.690;2022-10-10T06:40:43;100780.81;;;20.45;62.07
27613;BME280;15036;48.094;-1.690;2022-10-10T06:43:10;100776.63;;;20.43;62.31
27613;BME280;15036;48.094;-1.690;2022-10-10T06:45:45;100785.78;;;20.43;62.29
27613;BME280;15036;48.094;-1.690;2022-10-10T06:48:13;100792.78;;;20.51;62.01
27613;BME280;15036;48.094;-1.690;2022-10-10T06:50:39;100799.44;;;20.50;62.23
27613;BME280;15036;48.094;-1.690;2022-10-10T06:53:04;100810.78;;;20.48;62.35
27613;BME280;15036;48.094;-1.690;2022-10-10T06:55:30;100809.16;;;20.52;62.29
27613;BME280;15036;48.094;-1.690;2022-10-10T06:57:56;100821.06;;;20.48;62.61
27613;BME280;15036;48.094;-1.690;2022-10-10T07:00:21;100823.94;;;20.58;62.20
27613;BME280;15036;48.094;-1.690;2022-10-10T07:02:47;100816.44;;;20.58;62.30
27613;BME280;15036;48.094;-1.690;2022-10-10T07:05:13;100819.00;;;20.65;62.35
27613;BME280;15036;48.094;-1.690;2022-10-10T07:07:40;100822.53;;;20.60;62.47
27613;BME280;15036;48.094;-1.690;2022-10-10T07:10:07;100825.97;;;20.67;62.25
27613;BME280;15036;48.094;-1.690;2022-10-10T07:12:34;100836.78;;;20.69;62.60
27613;BME280;15036;48.094;-1.690;2022-10-10T07:15:00;100840.41;;;20.69;62.23
27613;BME280;15036;48.094;-1.690;2022-10-10T07:17:25;100843.78;;;20.77;62.31
27613;BME280;15036;48.094;-1.690;2022-10-10T07:19:50;100840.72;;;20.73;62.17
27613;BME280;15036;48.094;-1.690;2022-10-10T07:22:16;100841.28;;;20.75;62.16
27613;BME280;15036;48.094;-1.690;2022-10-10T07:24:41;100850.38;;;20.70;62.12
27613;BME280;15036;48.094;-1.690;2022-10-10T07:27:07;100856.81;;;20.76;62.07
27613;BME280;15036;48.094;-1.690;2022-10-10T07:29:32;100853.22;;;20.76;62.19
27613;BME280;15036;48.094;-1.690;2022-10-10T07:31:58;100861.38;;;20.87;61.67
27613;BME280;15036;48.094;-1.690;2022-10-10T07:34:24;100862.72;;;20.85;62.02
27613;BME280;15036;48.094;-1.690;2022-10-10T07:36:49;100866.88;;;20.82;62.12
27613;BME280;15036;48.094;-1.690;2022-10-10T07:39:22;100875.53;;;20.86;62.29
27613;BME280;15036;48.094;-1.690;2022-10-10T07:41:48;100881.13;;;20.96;62.02
27613;BME280;15036;48.094;-1.690;2022-10-10T07:44:14;100889.00;;;21.04;62.25
27613;BME280;15036;48.094;-1.690;2022-10-10T07:46:40;100888.03;;;21.15;61.64
27613;BME280;15036;48.094;-1.690;2022-10-10T07:49:05;100898.63;;;21.23;61.75
27613;BME280;15036;48.094;-1.690;2022-10-10T07:51:30;100898.63;;;21.23;61.88
27613;BME280;15036;48.094;-1.690;2022-10-10T07:53:56;100900.34;;;21.29;61.61
27613;BME280;15036;48.094;-1.690;2022-10-10T07:56:22;100902.66;;;21.42;61.11
27613;BME280;15036;48.094;-1.690;2022-10-10T07:58:47;100904.34;;;21.43;61.44
27613;BME280;15036;48.094;-1.690;2022-10-10T08:01:13;100913.34;;;21.55;61.02
27613;BME280;15036;48.094;-1.690;2022-10-10T08:03:39;100917.47;;;21.52;61.37
27613;BME280;15036;48.094;-1.690;2022-10-10T08:06:07;100917.97;;;21.44;61.43
27613;BME280;15036;48.094;-1.690;2022-10-10T08:08:33;100925.25;;;21.55;61.12
27613;BME280;15036;48.094;-1.690;2022-10-10T08:10:59;100932.59;;;21.72;60.70
27613;BME280;15036;48.094;-1.690;2022-10-10T08:13:25;100935.59;;;21.60;61.38
27613;BME280;15036;48.094;-1.690;2022-10-10T08:15:52;100928.72;;;21.73;61.04
27613;BME280;15036;48.094;-1.690;2022-10-10T08:18:17;100939.97;;;21.88;60.66
27613;BME280;15036;48.094;-1.690;2022-10-10T08:20:43;100944.97;;;21.91;60.94
27613;BME280;15036;48.094;-1.690;2022-10-10T08:23:08;100947.56;;;22.07;60.70
27613;BME280;15036;48.094;-1.690;2022-10-10T08:25:34;100951.59;;;22.31;59.96
27613;BME280;15036;48.094;-1.690;2022-10-10T08:27:59;100955.22;;;22.37;59.90
27613;BME280;15036;48.094;-1.690;2022-10-10T08:30:25;100957.03;;;22.63;59.12
27613;BME280;15036;48.094;-1.690;2022-10-10T08:32:50;100952.03;;;22.70;58.74
27613;BME280;15036;48.094;-1.690;2022-10-10T08:35:16;100961.97;;;22.56;58.65
27613;BME280;15036;48.094;-1.690;2022-10-10T08:37:41;100967.34;;;22.68;57.95
27613;BME280;15036;48.094;-1.690;2022-10-10T08:40:07;100969.00;;;22.69;58.37
27613;BME280;15036;48.094;-1.690;2022-10-10T08:42:37;100965.91;;;22.60;58.45
27613;BME280;15036;48.094;-1.690;2022-10-10T08:45:12;100981.25;;;22.63;58.64
27613;BME280;15036;48.094;-1.690;2022-10-10T08:48:01;100990.22;;;22.85;57.66
27613;BME280;15036;48.094;-1.690;2022-10-10T08:50:35;100991.63;;;22.87;58.21
27613;BME280;15036;48.094;-1.690;2022-10-10T08:53:27;100989.31;;;22.64;57.74
27613;BME280;15036;48.094;-1.690;2022-10-10T08:55:56;100983.88;;;23.19;56.95
27613;BME280;15036;48.094;-1.690;2022-10-10T09:01:16;100983.63;;;23.21;56.82
27613;BME280;15036;48.094;-1.690;2022-10-10T09:03:55;100996.69;;;23.10;56.81
27613;BME280;15036;48.094;-1.690;2022-10-10T09:09:48;101005.38;;;23.34;56.34
27613;BME280;15036;48.094;-1.690;2022-10-10T09:15:30;101018.78;;;23.37;56.19
27613;BME280;15036;48.094;-1.690;2022-10-10T09:18:27;101011.78;;;23.95;55.38
27613;BME280;15036;48.094;-1.690;2022-10-10T09:21:17;101020.44;;;23.73;55.48
27613;BME280;15036;48.094;-1.690;2022-10-10T09:24:04;101039.34;;;23.21;56.93
27613;BME280;15036;48.094;-1.690;2022-10-10T09:26:35;101032.41;;;23.44;56.38
27613;BME280;15036;48.094;-1.690;2022-10-10T09:31:43;101041.06;;;23.52;56.17
27613;BME280;15036;48.094;-1.690;2022-10-10T09:34:16;101035.22;;;23.64;55.73
27613;BME280;15036;48.094;-1.690;2022-10-10T09:36:45;101046.47;;;22.87;57.68
27613;BME280;15036;48.094;-1.690;2022-10-10T09:39:37;101043.28;;;23.55;56.27
27613;BME280;15036;48.094;-1.690;2022-10-10T09:42:16;101043.59;;;23.94;54.96
27613;BME280;15036;48.094;-1.690;2022-10-10T09:44:43;101047.22;;;23.89;55.17
27613;BME280;15036;48.094;-1.690;2022-10-10T09:47:13;101045.00;;;24.12;54.52
27613;BME280;15036;48.094;-1.690;2022-10-10T09:49:40;101046.06;;;24.31;54.02
27613;BME280;15036;48.094;-1.690;2022-10-10T09:52:32;101046.88;;;24.46;53.49
27613;BME280;15036;48.094;-1.690;2022-10-10T09:55:44;101049.34;;;24.58;53.33
27613;BME280;15036;48.094;-1.690;2022-10-10T09:57:45;101053.25;;;24.57;52.93
27613;BME280;15036;48.094;-1.690;2022-10-10T10:02:42;101059.19;;;24.40;53.42
27613;BME280;15036;48.094;-1.690;2022-10-10T10:05:25;101056.59;;;24.59;52.36
27613;BME280;15036;48.094;-1.690;2022-10-10T10:07:51;101063.69;;;24.06;53.98
27613;BME280;15036;48.094;-1.690;2022-10-10T10:10:19;101067.69;;;24.89;52.24
27613;BME280;15036;48.094;-1.690;2022-10-10T10:12:46;101073.78;;;24.96;52.36
27613;BME280;15036;48.094;-1.690;2022-10-10T10:15:18;101070.34;;;25.14;51.56
27613;BME280;15036;48.094;-1.690;2022-10-10T10:17:44;101075.63;;;25.16;51.77
27613;BME280;15036;48.094;-1.690;2022-10-10T10:22:53;101079.69;;;24.84;52.07
27613;BME280;15036;48.094;-1.690;2022-10-10T10:25:32;101081.06;;;24.97;51.92
27613;BME280;15036;48.094;-1.690;2022-10-10T10:28:20;101094.03;;;25.22;51.33
27613;BME280;15036;48.094;-1.690;2022-10-10T10:30:46;101093.63;;;24.94;51.60
27613;BME280;15036;48.094;-1.690;2022-10-10T10:33:39;101098.25;;;24.40;53.09
27613;BME280;15036;48.094;-1.690;2022-10-10T10:36:41;101097.94;;;23.61;55.83
27613;BME280;15036;48.094;-1.690;2022-10-10T10:42:13;101108.56;;;24.35;54.19
27613;BME280;15036;48.094;-1.690;2022-10-10T11:01:04;101143.97;;;23.59;56.37
27613;BME280;15036;48.094;-1.690;2022-10-10T11:03:50;101140.63;;;23.97;55.50
27613;BME280;15036;48.094;-1.690;2022-10-10T11:11:48;101163.16;;;22.15;62.52
27613;BME280;15036;48.094;-1.690;2022-10-10T11:15:16;101166.00;;;22.20;63.08
27613;BME280;15036;48.094;-1.690;2022-10-10T11:20:06;101173.69;;;22.44;63.09
27613;BME280;15036;48.094;-1.690;2022-10-10T11:22:43;101180.88;;;22.40;64.83
27613;BME280;15036;48.094;-1.690;2022-10-10T11:25:19;101180.94;;;21.82;67.24
27613;BME280;15036;48.094;-1.690;2022-10-10T11:27:53;101178.94;;;22.41;65.83
27613;BME280;15036;48.094;-1.690;2022-10-10T11:30:22;101182.81;;;21.77;68.14
27613;BME280;15036;48.094;-1.690;2022-10-10T11:33:10;101188.25;;;21.67;68.55
27613;BME280;15036;48.094;-1.690;2022-10-10T11:36:08;101191.44;;;22.38;67.01
27613;BME280;15036;48.094;-1.690;2022-10-10T11:41:18;101196.03;;;22.55;65.88
27613;BME280;15036;48.094;-1.690;2022-10-10T11:43:59;101197.56;;;22.40;66.49
27613;BME280;15036;48.094;-1.690;2022-10-10T11:46:38;101197.94;;;22.86;65.55
27613;BME280;15036;48.094;-1.690;2022-10-10T11:54:27;101199.38;;;22.93;66.28
27613;BME280;15036;48.094;-1.690;2022-10-10T11:57:00;101210.44;;;23.30;65.76
27613;BME280;15036;48.094;-1.690;2022-10-10T11:59:38;101202.50;;;23.59;65.07
27613;BME280;15036;48.094;-1.690;2022-10-10T12:02:18;101205.88;;;23.71;64.37
27613;BME280;15036;48.094;-1.690;2022-10-10T12:04:45;101192.78;;;23.81;64.22
27613;BME280;15036;48.094;-1.690;2022-10-10T12:07:26;101194.84;;;24.26;62.52
27613;BME280;15036;48.094;-1.690;2022-10-10T12:09:58;101192.03;;;24.36;62.30
27613;BME280;15036;48.094;-1.690;2022-10-10T12:12:33;101196.22;;;24.39;62.90
27613;BME280;15036;48.094;-1.690;2022-10-10T12:15:01;101190.03;;;24.01;62.49
27613;BME280;15036;48.094;-1.690;2022-10-10T12:17:31;101196.75;;;24.41;61.87
27613;BME280;15036;48.094;-1.690;2022-10-10T12:23:17;101196.19;;;24.69;61.18
27613;BME280;15036;48.094;-1.690;2022-10-10T12:25:45;101199.03;;;24.74;60.84
27613;BME280;15036;48.094;-1.690;2022-10-10T12:30:37;101207.09;;;24.65;59.88
27613;BME280;15036;48.094;-1.690;2022-10-10T12:35:52;101210.69;;;24.71;61.06
27613;BME280;15036;48.094;-1.690;2022-10-10T12:38:22;101204.84;;;24.82;60.75
27613;BME280;15036;48.094;-1.690;2022-10-10T12:46:29;101204.41;;;25.44;59.14
27613;BME280;15036;48.094;-1.690;2022-10-10T12:51:25;101205.72;;;24.78;58.05
27613;BME280;15036;48.094;-1.690;2022-10-10T12:53:56;101210.16;;;24.59;59.00
27613;BME280;15036;48.094;-1.690;2022-10-10T12:56:38;101211.84;;;24.70;58.58
27613;BME280;15036;48.094;-1.690;2022-10-10T12:59:12;101215.72;;;23.26;61.47
27613;BME280;15036;48.094;-1.690;2022-10-10T13:01:43;101228.75;;;23.16;63.00
27613;BME280;15036;48.094;-1.690;2022-10-10T13:04:14;101224.50;;;22.62;65.22
27613;BME280;15036;48.094;-1.690;2022-10-10T13:06:41;101231.13;;;22.56;64.68
27613;BME280;15036;48.094;-1.690;2022-10-10T13:09:13;101238.81;;;22.43;64.63
27613;BME280;15036;48.094;-1.690;2022-10-10T13:11:56;101225.47;;;22.46;64.84
27613;BME280;15036;48.094;-1.690;2022-10-10T13:14:23;101239.78;;;21.79;66.36
27613;BME280;15036;48.094;-1.690;2022-10-10T13:16:49;101233.59;;;22.52;64.93
27613;BME280;15036;48.094;-1.690;2022-10-10T13:19:21;101242.84;;;22.58;64.88
27613;BME280;15036;48.094;-1.690;2022-10-10T13:21:47;101242.88;;;22.63;65.28
27613;BME280;15036;48.094;-1.690;2022-10-10T13:24:16;101245.47;;;21.84;67.22
27613;BME280;15036;48.094;-1.690;2022-10-10T13:26:48;101244.78;;;21.77;68.07
27613;BME280;15036;48.094;-1.690;2022-10-10T13:29:22;101251.16;;;21.51;68.82
27613;BME280;15036;48.094;-1.690;2022-10-10T13:31:50;101256.31;;;21.64;68.57
27613;BME280;15036;48.094;-1.690;2022-10-10T13:34:23;101261.13;;;21.95;67.43
27613;BME280;15036;48.094;-1.690;2022-10-10T13:36:53;101266.19;;;21.98;66.92
27613;BME280;15036;48.094;-1.690;2022-10-10T13:39:19;101268.91;;;21.72;67.90
27613;BME280;15036;48.094;-1.690;2022-10-10T13:41:46;101272.84;;;21.97;67.80
27613;BME280;15036;48.094;-1.690;2022-10-10T13:44:20;101275.94;;;21.57;69.20
27613;BME280;15036;48.094;-1.690;2022-10-10T13:46:46;101273.25;;;22.11;67.38
27613;BME280;15036;48.094;-1.690;2022-10-10T13:51:48;101271.63;;;22.15;67.24
27613;BME280;15036;48.094;-1.690;2022-10-10T13:54:40;101270.25;;;21.69;68.18
27613;BME280;15036;48.094;-1.690;2022-10-10T13:57:33;101264.13;;;22.15;66.85
27613;BME280;15036;48.094;-1.690;2022-10-10T14:00:06;101267.44;;;22.71;65.58
27613;BME280;15036;48.094;-1.690;2022-10-10T14:02:33;101265.16;;;22.63;65.42
27613;BME280;15036;48.094;-1.690;2022-10-10T14:05:11;101269.66;;;22.69;65.20
27613;BME280;15036;48.094;-1.690;2022-10-10T14:07:39;101269.34;;;22.38;65.15
27613;BME280;15036;48.094;-1.690;2022-10-10T14:10:13;101275.19;;;22.37;64.92
27613;BME280;15036;48.094;-1.690;2022-10-10T14:12:48;101271.38;;;22.75;63.10
27613;BME280;15036;48.094;-1.690;2022-10-10T14:20:42;101281.34;;;23.49;61.51
27613;BME280;15036;48.094;-1.690;2022-10-10T14:23:08;101279.94;;;23.47;61.20
27613;BME280;15036;48.094;-1.690;2022-10-10T14:25:36;101283.00;;;23.03;62.21
27613;BME280;15036;48.094;-1.690;2022-10-10T14:28:02;101275.53;;;23.14;61.78